Time;durP1;ratioP1;P1;durP2;ratioP2;P2;SDS_P1;SDS_P2;PMS_P1;PMS_P2;Temp;Humidity;BMP_temperature;BMP_pressure;BME280_temperature;BME280_humidity;BME280_pressure;Samples;Min_cycle;Max_cycle;Signal;HPM_P1;HPM_P2
2024/04/26 00:02:37;;;;;;;2.63;2.05;;;23.90;99.90;;;;;;5309564;27;20049;-53
2024/04/26 00:05:03;;;;;;;3.13;2.30;;;23.90;99.90;;;;;;5312032;27;20454;-52
2024/04/26 00:07:29;;;;;;;3.00;1.83;;;23.90;99.90;;;;;;5312404;27;20044;-52
2024/04/26 00:09:54;;;;;;;3.45;2.10;;;23.90;99.90;;;;;;5312200;27;20329;-52
2024/04/26 00:12:20;;;;;;;2.95;2.03;;;23.90;99.90;;;;;;5311745;27;20008;-52
2024/04/26 00:14:46;;;;;;;3.20;2.10;;;23.90;99.90;;;;;;5311782;27;20029;-52
2024/04/26 00:17:12;;;;;;;2.90;2.10;;;23.90;99.90;;;;;;5311849;27;19998;-52
2024/04/26 00:19:37;;;;;;;2.78;2.05;;;23.90;99.90;;;;;;5311649;27;20454;-52
2024/04/26 00:22:04;;;;;;;3.65;2.15;;;23.90;99.90;;;;;;5311125;27;20005;-52
2024/04/26 00:24:30;;;;;;;2.85;2.00;;;23.90;99.90;;;;;;5312196;27;19995;-51
2024/04/26 00:26:56;;;;;;;3.17;2.30;;;23.90;99.90;;;;;;5310433;27;20005;-52
2024/04/26 00:29:22;;;;;;;2.30;1.60;;;23.90;99.90;;;;;;5312067;27;20001;-52
2024/04/26 00:31:48;;;;;;;3.00;2.25;;;23.90;99.90;;;;;;5311687;27;19994;-52
2024/04/26 00:34:13;;;;;;;3.03;2.05;;;23.90;99.90;;;;;;5311438;27;19997;-51
2024/04/26 00:36:42;;;;;;;2.67;1.95;;;23.90;99.90;;;;;;5281553;27;20419;-52
2024/04/26 00:39:08;;;;;;;3.92;2.00;;;23.90;99.90;;;;;;5311578;27;19998;-52
2024/04/26 00:41:34;;;;;;;3.10;1.77;;;23.90;99.90;;;;;;5311384;27;20047;-52
2024/04/26 00:44:09;;;;;;;3.28;2.10;;;23.80;99.90;;;;;;5311808;27;20365;-52
2024/04/26 00:46:35;;;;;;;5.18;2.03;;;23.80;99.90;;;;;;5311488;27;20009;-52
2024/04/26 00:49:01;;;;;;;4.13;2.38;;;23.80;99.90;;;;;;5281247;27;20001;-52
2024/04/26 00:51:28;;;;;;;4.13;1.73;;;23.80;99.90;;;;;;5279965;27;19998;-52
2024/04/26 00:53:57;;;;;;;3.42;2.00;;;23.80;99.90;;;;;;5305839;27;20065;-52
2024/04/26 00:56:25;;;;;;;3.83;2.08;;;23.80;99.90;;;;;;5310213;27;20021;-52
2024/04/26 00:58:51;;;;;;;6.90;2.75;;;23.80;99.90;;;;;;5311341;27;20446;-52
2024/04/26 01:01:19;;;;;;;6.60;2.45;;;23.80;99.90;;;;;;5312000;27;20334;-52
2024/04/26 01:03:48;;;;;;;1.90;1.67;;;23.80;99.90;;;;;;5281336;27;19998;-52
2024/04/26 01:06:14;;;;;;;2.80;1.88;;;23.80;99.90;;;;;;5281064;27;20057;-52
2024/04/26 01:08:40;;;;;;;2.78;1.77;;;23.80;99.90;;;;;;5311542;27;20037;-52
2024/04/26 01:11:05;;;;;;;3.15;2.22;;;23.80;99.90;;;;;;5311148;27;20002;-52
2024/04/26 01:13:35;;;;;;;2.55;1.92;;;23.80;99.90;;;;;;5311012;27;20001;-52
2024/04/26 01:16:02;;;;;;;4.13;1.90;;;23.80;99.90;;;;;;5311076;27;20334;-53
2024/04/26 01:18:28;;;;;;;2.38;1.75;;;23.80;99.90;;;;;;5281427;27;20040;-52
2024/04/26 01:20:53;;;;;;;2.50;1.85;;;23.80;99.90;;;;;;5310991;27;20001;-52
2024/04/26 01:23:20;;;;;;;4.53;1.85;;;23.80;99.90;;;;;;5311011;27;20449;-52
2024/04/26 01:25:56;;;;;;;2.38;1.67;;;23.80;99.90;;;;;;5310890;27;20023;-52
2024/04/26 01:28:21;;;;;;;3.13;1.80;;;23.80;99.90;;;;;;5310700;27;19997;-52
2024/04/26 01:30:47;;;;;;;3.50;2.25;;;23.80;99.90;;;;;;5310894;27;20070;-52
2024/04/26 01:33:13;;;;;;;2.92;1.60;;;23.70;99.90;;;;;;5312323;27;20008;-52
2024/04/26 01:35:39;;;;;;;3.13;2.47;;;23.80;99.90;;;;;;5314293;27;20001;-51
2024/04/26 01:38:05;;;;;;;3.20;2.10;;;23.80;99.90;;;;;;5314186;27;20434;-52
2024/04/26 01:40:31;;;;;;;3.20;1.80;;;23.80;99.90;;;;;;5255727;27;20463;-52
2024/04/26 01:42:57;;;;;;;3.50;2.20;;;23.80;99.90;;;;;;5314010;27;20009;-52
2024/04/26 01:45:22;;;;;;;1.75;1.63;;;23.80;99.90;;;;;;5313867;27;20043;-52
2024/04/26 01:47:48;;;;;;;3.05;2.00;;;23.80;99.90;;;;;;5288438;26;20006;-53
2024/04/26 01:50:14;;;;;;;4.00;1.90;;;23.70;99.90;;;;;;5256374;27;20038;-52
2024/04/26 01:52:40;;;;;;;2.20;1.60;;;23.70;99.90;;;;;;5293514;27;20002;-52
2024/04/26 01:55:06;;;;;;;2.47;1.70;;;23.70;99.90;;;;;;5309390;27;20006;-52
2024/04/26 01:57:31;;;;;;;3.42;1.88;;;23.80;99.90;;;;;;5308287;27;19998;-52
2024/04/26 01:59:57;;;;;;;3.05;2.10;;;23.80;99.90;;;;;;5310130;27;20002;-52
2024/04/26 02:02:23;;;;;;;2.67;1.83;;;23.70;99.90;;;;;;5310360;27;20017;-52
2024/04/26 02:04:49;;;;;;;3.35;1.73;;;23.70;99.90;;;;;;5309964;27;20390;-52
2024/04/26 02:07:14;;;;;;;3.75;2.05;;;23.70;99.90;;;;;;5310369;27;20008;-52
2024/04/26 02:09:40;;;;;;;3.10;1.75;;;23.70;99.90;;;;;;5311846;27;20042;-52
2024/04/26 02:12:06;;;;;;;3.25;2.45;;;23.70;99.90;;;;;;5313553;27;21009;-52
2024/04/26 02:14:32;;;;;;;1.63;1.50;;;23.70;99.90;;;;;;5313592;27;20008;-52
2024/04/26 02:16:57;;;;;;;4.80;2.10;;;23.70;99.90;;;;;;5313457;27;20538;-52
2024/04/26 02:19:23;;;;;;;3.58;1.88;;;23.70;99.90;;;;;;5313423;27;20016;-52
2024/04/26 02:21:49;;;;;;;2.70;1.85;;;23.70;99.90;;;;;;5313469;27;20011;-52
2024/04/26 02:24:15;;;;;;;2.25;1.45;;;23.70;99.90;;;;;;5313750;27;20001;-52
2024/04/26 02:26:40;;;;;;;4.15;1.70;;;23.70;99.90;;;;;;5313702;27;20015;-52
2024/04/26 02:29:06;;;;;;;3.45;2.00;;;23.70;99.90;;;;;;5313525;27;20001;-52
2024/04/26 02:31:32;;;;;;;3.08;1.83;;;23.70;99.90;;;;;;5313202;27;19998;-52
2024/04/26 02:33:58;;;;;;;2.88;1.80;;;23.70;99.90;;;;;;5313178;27;20309;-52
2024/04/26 02:36:23;;;;;;;2.60;1.42;;;23.70;99.90;;;;;;5311648;27;19998;-52
2024/04/26 02:38:49;;;;;;;3.13;1.83;;;23.60;99.90;;;;;;5313159;27;19998;-52
2024/04/26 02:41:16;;;;;;;3.10;2.15;;;23.60;99.90;;;;;;5283193;27;20013;-52
2024/04/26 02:43:42;;;;;;;5.25;1.77;;;23.60;99.90;;;;;;5312706;27;20373;-52
2024/04/26 02:46:12;;;;;;;4.40;2.08;;;23.70;99.90;;;;;;5313431;27;20009;-52
2024/04/26 02:48:39;;;;;;;3.72;1.80;;;23.60;99.90;;;;;;5283338;27;19998;-53
2024/04/26 02:51:08;;;;;;;3.10;1.95;;;23.60;99.90;;;;;;5313254;27;20037;-52
2024/04/26 02:53:34;;;;;;;2.55;1.60;;;23.60;99.90;;;;;;5313023;27;20002;-52
2024/04/26 02:55:59;;;;;;;3.03;1.50;;;23.60;99.90;;;;;;5282924;27;20002;-52
2024/04/26 02:58:25;;;;;;;2.55;1.92;;;23.60;99.90;;;;;;5312910;27;19998;-52
2024/04/26 03:00:51;;;;;;;4.47;1.83;;;23.60;99.90;;;;;;5313427;27;20492;-52
2024/04/26 03:03:17;;;;;;;3.50;1.52;;;23.60;99.90;;;;;;5313238;27;20002;-52
2024/04/26 03:05:42;;;;;;;3.60;1.45;;;23.60;99.90;;;;;;5312852;27;20002;-52
2024/04/26 03:08:08;;;;;;;2.72;1.90;;;23.50;99.90;;;;;;5312713;27;20438;-52
2024/04/26 03:10:34;;;;;;;3.15;1.63;;;23.50;99.90;;;;;;5312897;27;20001;-52
2024/04/26 03:13:00;;;;;;;3.13;1.80;;;23.50;99.90;;;;;;5313032;27;20422;-52
2024/04/26 03:15:26;;;;;;;3.45;1.98;;;23.50;99.90;;;;;;5310997;27;20008;-52
2024/04/26 03:17:51;;;;;;;3.15;1.70;;;23.50;99.90;;;;;;5282490;27;20012;-52
2024/04/26 03:20:18;;;;;;;2.88;1.50;;;23.50;99.90;;;;;;5282822;27;19997;-52
2024/04/26 03:22:45;;;;;;;3.88;2.13;;;23.50;99.90;;;;;;5282265;27;19998;-52
2024/04/26 03:25:11;;;;;;;3.28;1.80;;;23.50;99.90;;;;;;5312659;27;20008;-52
2024/04/26 03:27:37;;;;;;;3.97;1.90;;;23.50;99.90;;;;;;5312373;27;19997;-53
2024/04/26 03:30:03;;;;;;;4.72;2.30;;;23.50;99.90;;;;;;5312537;27;20446;-52
2024/04/26 03:32:32;;;;;;;4.30;1.55;;;23.50;99.90;;;;;;5312241;27;20008;-52
2024/04/26 03:34:58;;;;;;;1.92;1.40;;;23.50;99.90;;;;;;5312284;27;20339;-52
2024/04/26 03:37:23;;;;;;;3.50;1.48;;;23.50;99.90;;;;;;5312724;27;20072;-52
2024/04/26 03:39:49;;;;;;;2.08;1.50;;;23.40;99.90;;;;;;5312530;27;19998;-52
2024/04/26 03:42:15;;;;;;;4.78;1.45;;;23.40;99.90;;;;;;5312311;27;20005;-52
2024/04/26 03:44:41;;;;;;;2.78;1.77;;;23.50;99.90;;;;;;5312377;27;20076;-52
2024/04/26 03:47:07;;;;;;;3.95;1.70;;;23.40;99.90;;;;;;5312341;27;20008;-52
2024/04/26 03:49:32;;;;;;;2.65;1.80;;;23.40;99.90;;;;;;5312205;27;20009;-52
2024/04/26 03:51:58;;;;;;;3.10;1.45;;;23.40;99.90;;;;;;5312160;27;20013;-52
2024/04/26 03:54:24;;;;;;;4.00;1.73;;;23.40;99.90;;;;;;5312326;27;19998;-52
2024/04/26 03:56:50;;;;;;;2.90;1.65;;;23.40;99.90;;;;;;5311337;27;20446;-52
2024/04/26 03:59:15;;;;;;;3.13;1.35;;;23.40;99.90;;;;;;5282170;27;20008;-52
2024/04/26 04:01:41;;;;;;;2.50;1.55;;;23.40;99.90;;;;;;5312287;27;20401;-52
2024/04/26 04:04:07;;;;;;;2.53;1.50;;;23.40;99.90;;;;;;5312146;27;20001;-52
2024/04/26 04:06:33;;;;;;;2.95;1.67;;;23.40;99.90;;;;;;5282064;27;20001;-52
2024/04/26 04:08:59;;;;;;;3.67;1.65;;;23.40;99.90;;;;;;5312013;27;20013;-52
2024/04/26 04:11:24;;;;;;;3.30;1.52;;;23.30;99.90;;;;;;5311878;27;20008;-52
2024/04/26 04:13:50;;;;;;;2.67;1.58;;;23.30;99.90;;;;;;5312393;27;19998;-52
2024/04/26 04:16:16;;;;;;;3.10;1.52;;;23.30;99.90;;;;;;5312017;27;20009;-52
2024/04/26 04:18:42;;;;;;;2.50;1.70;;;23.30;99.90;;;;;;5312007;27;19997;-52
2024/04/26 04:21:07;;;;;;;4.03;1.80;;;23.30;99.90;;;;;;5311931;27;20434;-52
2024/04/26 04:23:33;;;;;;;2.42;1.40;;;23.30;99.90;;;;;;5311758;27;19998;-52
2024/04/26 04:25:59;;;;;;;2.80;1.60;;;23.30;99.90;;;;;;5311952;27;20035;-52
2024/04/26 04:28:26;;;;;;;2.45;1.63;;;23.30;99.90;;;;;;5311779;27;20073;-52
2024/04/26 04:30:52;;;;;;;4.38;1.70;;;23.30;99.90;;;;;;5312084;27;19997;-52
2024/04/26 04:33:19;;;;;;;3.38;1.60;;;23.30;99.90;;;;;;5311729;27;20434;-52
2024/04/26 04:35:45;;;;;;;3.00;2.00;;;23.30;99.90;;;;;;5311609;27;20048;-52
2024/04/26 04:38:11;;;;;;;2.35;1.65;;;23.30;99.90;;;;;;5311751;27;20044;-52
2024/04/26 04:40:37;;;;;;;2.92;1.30;;;23.30;99.90;;;;;;5311656;27;20008;-52
2024/04/26 04:43:03;;;;;;;2.83;1.55;;;23.30;99.90;;;;;;5311770;27;20001;-52
2024/04/26 04:45:29;;;;;;;5.15;1.40;;;23.30;99.90;;;;;;5311560;27;20002;-52
2024/04/26 04:47:55;;;;;;;5.35;2.00;;;23.20;99.90;;;;;;5311496;27;20017;-52
2024/04/26 04:50:21;;;;;;;5.75;1.60;;;23.20;99.90;;;;;;5311929;27;20001;-52
2024/04/26 04:52:47;;;;;;;2.38;1.45;;;23.20;99.90;;;;;;5311501;27;20010;-52
2024/04/26 04:55:12;;;;;;;2.80;1.63;;;23.20;99.90;;;;;;5311445;27;19998;-52
2024/04/26 04:57:38;;;;;;;2.92;1.42;;;23.20;99.90;;;;;;5290586;26;20452;-52
2024/04/26 05:00:05;;;;;;;4.28;1.80;;;23.20;99.90;;;;;;5280101;27;20006;-52
2024/04/26 05:02:31;;;;;;;3.97;1.27;;;23.20;99.90;;;;;;5310577;27;19994;-52
2024/04/26 05:04:57;;;;;;;3.30;1.60;;;23.20;99.90;;;;;;5310945;26;20001;-52
2024/04/26 05:07:23;;;;;;;2.92;1.50;;;23.20;99.90;;;;;;5310476;27;20006;-52
2024/04/26 05:09:49;;;;;;;3.42;1.70;;;23.20;99.90;;;;;;5310501;26;20013;-52
2024/04/26 05:12:14;;;;;;;4.22;1.60;;;23.20;99.90;;;;;;5310461;26;20002;-52
2024/04/26 05:14:41;;;;;;;2.88;1.40;;;23.20;99.90;;;;;;5310565;26;20009;-52
2024/04/26 05:17:07;;;;;;;3.53;1.67;;;23.20;99.90;;;;;;5310337;26;20030;-52
2024/04/26 05:19:33;;;;;;;4.30;2.25;;;23.20;99.90;;;;;;5310512;26;20001;-52
2024/04/26 05:21:59;;;;;;;2.08;1.67;;;23.20;99.90;;;;;;5310525;26;20346;-52
2024/04/26 05:24:25;;;;;;;2.50;1.85;;;23.20;99.90;;;;;;5310544;26;20500;-52
2024/04/26 05:26:53;;;;;;;3.60;1.90;;;23.20;99.90;;;;;;5307370;27;20022;-52
2024/04/26 05:29:19;;;;;;;2.88;1.55;;;23.20;99.90;;;;;;5307311;27;20005;-52
2024/04/26 05:31:45;;;;;;;4.35;1.65;;;23.20;99.90;;;;;;5307311;27;20005;-52
2024/04/26 05:34:12;;;;;;;3.22;1.45;;;23.20;99.90;;;;;;5307053;27;20377;-52
2024/04/26 05:36:37;;;;;;;3.13;1.85;;;23.10;99.90;;;;;;5307239;27;20478;-52
2024/04/26 05:39:03;;;;;;;1.60;1.05;;;23.10;99.90;;;;;;5305403;26;19993;-52
2024/04/26 05:41:29;;;;;;;7.25;1.88;;;23.10;99.90;;;;;;5309459;27;20004;-52
2024/04/26 05:43:55;;;;;;;3.33;1.50;;;23.10;99.90;;;;;;5310984;27;19994;-52
2024/04/26 05:46:21;;;;;;;1.95;1.35;;;23.10;99.90;;;;;;5310460;27;20288;-52
2024/04/26 05:48:47;;;;;;;4.22;1.30;;;23.10;99.90;;;;;;5310410;27;20002;-52
2024/04/26 05:51:16;;;;;;;2.33;1.45;;;23.10;99.90;;;;;;5280293;27;19994;-52
2024/04/26 05:53:43;;;;;;;3.70;1.40;;;23.10;99.90;;;;;;5310344;27;19998;-52
2024/04/26 05:56:12;;;;;;;3.90;2.00;;;23.10;99.90;;;;;;5280152;27;20001;-52
2024/04/26 05:58:38;;;;;;;3.35;1.15;;;23.10;99.90;;;;;;5310246;27;20301;-52
2024/04/26 06:01:07;;;;;;;4.05;1.40;;;23.10;99.90;;;;;;5310197;27;20012;-52
2024/04/26 06:03:33;;;;;;;4.35;1.98;;;23.10;99.90;;;;;;5310115;27;19997;-52
2024/04/26 06:06:00;;;;;;;3.45;1.75;;;23.10;99.90;;;;;;5280148;27;20010;-52
2024/04/26 06:08:26;;;;;;;1.63;1.30;;;23.10;99.90;;;;;;5310456;27;19998;-52
2024/04/26 06:10:52;;;;;;;6.18;1.95;;;23.00;99.90;;;;;;5309984;27;20431;-52
2024/04/26 06:13:17;;;;;;;2.83;1.40;;;23.10;99.90;;;;;;5310028;27;20431;-52
2024/04/26 06:15:43;;;;;;;2.83;1.40;;;23.10;99.90;;;;;;5310009;27;20009;-52
2024/04/26 06:18:09;;;;;;;2.50;1.65;;;23.10;99.90;;;;;;5310288;27;19998;-52
2024/04/26 06:20:35;;;;;;;5.03;1.77;;;23.00;99.90;;;;;;5283268;27;20038;-52
2024/04/26 06:23:01;;;;;;;4.13;1.60;;;23.10;99.90;;;;;;5313335;27;20008;-52
2024/04/26 06:25:26;;;;;;;2.92;1.52;;;23.10;99.90;;;;;;5313787;27;20001;-52
2024/04/26 06:27:52;;;;;;;2.53;1.20;;;23.00;99.90;;;;;;5313374;27;20126;-52
2024/04/26 06:30:18;;;;;;;2.15;1.55;;;23.00;99.90;;;;;;5313160;27;20001;-52
2024/04/26 06:32:44;;;;;;;3.58;1.73;;;23.00;99.90;;;;;;5313249;27;19998;-52
2024/04/26 06:35:10;;;;;;;2.35;1.10;;;23.00;99.90;;;;;;5313189;27;20453;-52
2024/04/26 06:37:35;;;;;;;3.38;1.52;;;23.10;99.90;;;;;;5313290;27;20016;-52
2024/04/26 06:40:01;;;;;;;3.20;1.63;;;23.00;99.90;;;;;;5313386;27;20011;-52
2024/04/26 06:42:27;;;;;;;2.08;1.35;;;23.00;99.90;;;;;;5313175;27;20013;-52
2024/04/26 06:44:53;;;;;;;2.30;1.52;;;23.10;99.90;;;;;;5282999;27;20016;-52
2024/04/26 06:47:20;;;;;;;2.97;1.38;;;23.10;99.90;;;;;;5313113;27;20038;-52
2024/04/26 06:49:46;;;;;;;5.50;1.73;;;23.10;99.90;;;;;;5313362;27;20010;-52
2024/04/26 06:52:15;;;;;;;2.05;1.27;;;23.00;99.90;;;;;;5313264;27;20002;-52
2024/04/26 06:54:40;;;;;;;3.00;1.70;;;23.10;99.90;;;;;;5313045;27;20036;-52
2024/04/26 06:57:06;;;;;;;3.42;1.23;;;23.10;99.90;;;;;;5312980;27;20105;-52
2024/04/26 06:59:32;;;;;;;4.30;2.17;;;23.10;99.90;;;;;;5312944;27;20017;-52
2024/04/26 07:02:00;;;;;;;3.53;1.20;;;23.10;99.90;;;;;;5312800;27;20016;-52
2024/04/26 07:04:26;;;;;;;3.58;1.63;;;23.10;99.90;;;;;;5312774;27;20446;-52
2024/04/26 07:06:52;;;;;;;2.13;1.45;;;23.00;99.90;;;;;;5312650;27;20030;-52
2024/04/26 07:09:18;;;;;;;4.18;1.23;;;23.00;99.90;;;;;;5312841;27;20005;-52
2024/04/26 07:11:44;;;;;;;3.97;1.30;;;23.00;99.90;;;;;;5312815;27;20074;-52
2024/04/26 07:14:10;;;;;;;3.08;1.70;;;23.00;99.90;;;;;;5312706;27;20045;-52
2024/04/26 07:16:36;;;;;;;5.40;1.58;;;23.00;99.90;;;;;;5312631;27;20076;-52
2024/04/26 07:19:02;;;;;;;2.42;1.65;;;23.10;99.90;;;;;;5313077;27;19998;-52
2024/04/26 07:21:33;;;;;;;3.00;1.35;;;23.00;99.90;;;;;;5312950;27;19997;-52
2024/04/26 07:23:59;;;;;;;5.45;1.50;;;23.00;99.90;;;;;;5312967;27;20017;-52
2024/04/26 07:26:26;;;;;;;2.97;1.90;;;23.00;99.90;;;;;;5312693;27;19997;-52
2024/04/26 07:28:52;;;;;;;1.75;1.15;;;23.10;99.90;;;;;;5312559;27;20025;-52
2024/04/26 07:31:18;;;;;;;5.10;1.40;;;23.00;99.90;;;;;;5312515;27;20461;-53
2024/04/26 07:33:43;;;;;;;2.40;1.45;;;23.10;99.90;;;;;;5312446;27;19997;-52
2024/04/26 07:36:09;;;;;;;4.68;1.65;;;23.00;99.90;;;;;;5312437;27;20079;-52
2024/04/26 07:38:35;;;;;;;3.72;1.65;;;23.00;99.90;;;;;;5282465;27;19997;-52
2024/04/26 07:41:01;;;;;;;2.95;1.30;;;23.00;99.90;;;;;;5312589;27;20454;-52
2024/04/26 07:43:27;;;;;;;3.28;1.48;;;23.00;99.90;;;;;;5312461;27;19997;-52
2024/04/26 07:45:53;;;;;;;3.67;1.60;;;23.10;99.90;;;;;;5312279;27;20017;-52
2024/04/26 07:48:19;;;;;;;2.10;1.58;;;23.00;99.90;;;;;;5312333;27;20442;-52
2024/04/26 07:50:45;;;;;;;3.33;1.45;;;23.00;99.90;;;;;;5312220;27;20013;-52
2024/04/26 07:53:14;;;;;;;4.15;1.50;;;23.10;99.90;;;;;;5312272;27;20002;-52
2024/04/26 07:55:40;;;;;;;3.70;1.38;;;23.10;99.90;;;;;;5312219;27;20069;-53
2024/04/26 07:58:06;;;;;;;4.95;1.77;;;23.10;99.90;;;;;;5312504;27;19998;-52
2024/04/26 08:00:35;;;;;;;4.65;1.63;;;23.10;99.90;;;;;;5312172;27;19998;-52
2024/04/26 08:03:02;;;;;;;4.15;2.00;;;23.10;99.90;;;;;;5312376;27;20001;-52
2024/04/26 08:05:28;;;;;;;3.35;1.67;;;23.10;99.90;;;;;;5311747;27;20425;-52
2024/04/26 08:07:54;;;;;;;4.10;1.60;;;23.10;99.90;;;;;;5310418;27;20002;-52
2024/04/26 08:10:20;;;;;;;2.67;1.48;;;23.10;99.90;;;;;;5311998;27;19997;-53
2024/04/26 08:12:45;;;;;;;5.25;1.83;;;23.10;99.90;;;;;;5281721;27;20002;-52
2024/04/26 08:15:11;;;;;;;3.15;1.50;;;23.10;99.90;;;;;;5311894;27;20007;-52
2024/04/26 08:17:38;;;;;;;3.08;1.80;;;23.10;99.90;;;;;;5311908;27;19998;-52
2024/04/26 08:20:05;;;;;;;5.00;1.80;;;23.10;99.90;;;;;;5312120;27;20006;-52
2024/04/26 08:22:30;;;;;;;4.03;1.80;;;23.10;99.90;;;;;;5312152;27;20075;-52
2024/04/26 08:24:56;;;;;;;3.58;1.92;;;23.20;99.90;;;;;;5310145;27;20458;-52
2024/04/26 08:27:22;;;;;;;4.72;1.83;;;23.20;99.90;;;;;;5281838;27;20009;-52
2024/04/26 08:29:48;;;;;;;3.67;1.80;;;23.10;99.90;;;;;;5311707;27;20029;-52
2024/04/26 08:32:14;;;;;;;3.88;1.67;;;23.10;99.90;;;;;;5281427;27;20076;-52
2024/04/26 08:34:40;;;;;;;4.38;1.80;;;23.20;99.90;;;;;;5311576;27;20075;-53
2024/04/26 08:37:07;;;;;;;5.00;1.50;;;23.20;99.90;;;;;;5311664;27;20002;-52
2024/04/26 08:39:33;;;;;;;3.50;2.00;;;23.10;99.90;;;;;;5309951;27;20001;-52
2024/04/26 08:42:01;;;;;;;5.20;2.05;;;23.20;99.90;;;;;;5310450;27;20005;-52
2024/04/26 08:44:30;;;;;;;4.40;1.73;;;23.20;99.90;;;;;;5311461;27;20342;-52
2024/04/26 08:46:57;;;;;;;2.92;1.80;;;23.10;99.90;;;;;;5311160;27;20005;-52
2024/04/26 08:49:26;;;;;;;5.88;2.05;;;23.10;99.90;;;;;;5309239;27;20002;-52
2024/04/26 08:51:54;;;;;;;5.03;2.10;;;23.10;99.90;;;;;;5274539;27;20017;-52
2024/04/26 08:54:21;;;;;;;3.53;1.92;;;23.20;99.90;;;;;;5295705;27;20020;-52
2024/04/26 08:56:53;;;;;;;2.58;1.88;;;23.20;99.90;;;;;;5307887;27;19997;-52
2024/04/26 08:59:20;;;;;;;3.60;1.98;;;23.20;99.90;;;;;;5307540;27;20342;-52
2024/04/26 09:01:47;;;;;;;5.80;2.42;;;23.20;99.90;;;;;;5307229;27;20072;-52
2024/04/26 09:04:13;;;;;;;4.63;2.25;;;23.20;99.90;;;;;;5307505;27;20008;-52
2024/04/26 09:06:39;;;;;;;4.25;2.17;;;23.20;99.90;;;;;;5307544;27;20001;-52
2024/04/26 09:09:04;;;;;;;4.07;1.90;;;23.20;99.90;;;;;;5308377;27;20435;-52
2024/04/26 09:11:30;;;;;;;3.85;1.95;;;23.20;99.90;;;;;;5311045;27;19993;-52
2024/04/26 09:13:59;;;;;;;6.30;2.00;;;23.20;99.90;;;;;;5311019;27;20427;-52
2024/04/26 09:16:29;;;;;;;5.25;2.38;;;23.20;99.90;;;;;;5310896;27;20104;-52
2024/04/26 09:18:54;;;;;;;3.50;1.85;;;23.20;99.90;;;;;;5310863;27;19998;-52
2024/04/26 09:21:20;;;;;;;5.55;2.00;;;23.20;99.90;;;;;;5310495;27;20352;-52
2024/04/26 09:23:46;;;;;;;5.25;1.77;;;23.20;99.90;;;;;;5280305;27;20331;-52
2024/04/26 09:26:12;;;;;;;3.92;2.00;;;23.20;99.90;;;;;;5310787;27;20002;-52
2024/04/26 09:28:39;;;;;;;2.90;2.17;;;23.20;99.90;;;;;;5311166;27;20075;-52
2024/04/26 09:31:05;;;;;;;5.15;2.20;;;23.20;99.90;;;;;;5310946;27;20009;-52
2024/04/26 09:33:33;;;;;;;3.38;2.20;;;23.20;99.90;;;;;;5310294;27;20017;-52
2024/04/26 09:35:59;;;;;;;7.60;2.08;;;23.20;99.90;;;;;;5310184;27;20072;-52
2024/04/26 09:38:27;;;;;;;4.10;1.80;;;23.20;99.90;;;;;;5310513;27;20002;-52
2024/04/26 09:40:53;;;;;;;3.60;1.70;;;23.20;99.90;;;;;;5310564;27;20002;-52
2024/04/26 09:43:19;;;;;;;5.47;2.25;;;23.20;99.90;;;;;;5310410;27;20002;-52
2024/04/26 09:45:47;;;;;;;2.97;1.92;;;23.20;99.90;;;;;;5310155;27;20049;-52
2024/04/26 09:48:13;;;;;;;6.43;2.60;;;23.20;99.90;;;;;;5279775;27;20002;-52
2024/04/26 09:50:40;;;;;;;4.45;2.00;;;23.20;99.90;;;;;;5310381;27;20009;-52
2024/04/26 09:53:06;;;;;;;4.50;2.10;;;23.20;99.90;;;;;;5310385;27;20012;-52
2024/04/26 09:55:33;;;;;;;2.85;1.77;;;23.20;99.90;;;;;;5313392;27;20012;-52
2024/04/26 09:57:59;;;;;;;3.65;2.03;;;23.20;99.90;;;;;;5313322;27;20015;-52
2024/04/26 10:00:28;;;;;;;3.95;2.15;;;23.20;99.90;;;;;;5312990;27;20438;-51
2024/04/26 10:03:03;;;;;;;4.45;1.70;;;23.20;99.90;;;;;;5313190;27;20005;-51
2024/04/26 10:05:31;;;;;;;3.87;1.60;;;23.20;99.90;;;;;;5313195;27;20005;-51
2024/04/26 10:07:57;;;;;;;2.80;1.75;;;23.20;99.90;;;;;;5313396;27;20233;-51
2024/04/26 10:10:27;;;;;;;3.50;1.77;;;23.20;99.90;;;;;;5313084;27;20068;-51
2024/04/26 10:13:19;;;;;;;5.63;2.38;;;23.20;99.90;;;;;;5283306;27;20001;-52
2024/04/26 10:15:55;;;;;;;3.60;1.77;;;23.20;99.90;;;;;;5313387;27;20009;-51
2024/04/26 10:18:34;;;;;;;4.43;1.58;;;23.20;99.90;;;;;;5313220;27;20013;-51
2024/04/26 10:21:00;;;;;;;2.40;1.85;;;23.20;99.90;;;;;;5313373;27;20008;-51
2024/04/26 10:23:26;;;;;;;4.57;1.67;;;23.20;99.90;;;;;;5313327;27;20006;-51
2024/04/26 10:25:52;;;;;;;4.50;1.80;;;23.20;99.90;;;;;;5312887;27;20002;-51
2024/04/26 10:28:18;;;;;;;3.60;2.00;;;23.20;99.90;;;;;;5282968;27;20360;-51
2024/04/26 10:30:50;;;;;;;7.18;2.17;;;23.20;99.90;;;;;;5313270;27;20012;-51
2024/04/26 10:33:18;;;;;;;4.72;1.63;;;23.20;99.90;;;;;;5313021;27;20368;-52
2024/04/26 10:35:44;;;;;;;2.40;1.70;;;23.20;99.90;;;;;;5312947;27;20071;-51
2024/04/26 10:38:10;;;;;;;4.78;2.10;;;23.30;99.90;;;;;;5313328;27;20017;-51
2024/04/26 10:40:47;;;;;;;4.25;1.83;;;23.30;99.90;;;;;;5282579;27;20434;-52
2024/04/26 10:43:23;;;;;;;5.40;2.17;;;23.20;99.90;;;;;;5313441;27;20030;-51
2024/04/26 10:45:57;;;;;;;6.90;2.25;;;23.30;99.90;;;;;;5312871;27;20001;-51
2024/04/26 10:48:28;;;;;;;3.05;1.65;;;23.30;99.90;;;;;;5312674;27;20076;-51
2024/04/26 10:51:02;;;;;;;4.65;1.83;;;23.30;99.90;;;;;;5282645;27;20006;-51
2024/04/26 10:53:27;;;;;;;5.22;2.00;;;23.30;99.90;;;;;;5312789;27;20005;-51
2024/04/26 10:55:53;;;;;;;6.50;1.83;;;23.30;99.90;;;;;;5312842;27;20071;-51
2024/04/26 10:58:19;;;;;;;4.25;1.92;;;23.30;99.90;;;;;;5311177;27;19997;-52
2024/04/26 11:00:47;;;;;;;2.70;1.77;;;23.30;99.90;;;;;;5311033;26;20009;-52
2024/04/26 11:03:12;;;;;;;3.78;1.85;;;23.30;99.90;;;;;;5313141;27;20001;-52
2024/04/26 11:05:46;;;;;;;4.90;1.70;;;23.30;99.90;;;;;;5312481;27;20008;-51
2024/04/26 11:08:26;;;;;;;3.58;1.88;;;23.30;99.90;;;;;;5313032;27;19997;-51
2024/04/26 11:10:52;;;;;;;3.55;1.83;;;23.30;99.90;;;;;;5312431;27;20474;-51
2024/04/26 11:13:24;;;;;;;5.20;1.77;;;23.30;99.90;;;;;;5312422;27;19997;-51
2024/04/26 11:15:51;;;;;;;5.30;2.17;;;23.30;99.90;;;;;;5281906;27;20009;-51
2024/04/26 11:18:17;;;;;;;4.60;2.05;;;23.30;99.90;;;;;;5312414;27;20001;-51
2024/04/26 11:20:43;;;;;;;5.55;1.80;;;23.30;99.90;;;;;;5312713;27;20009;-51
2024/04/26 11:23:08;;;;;;;6.95;2.00;;;23.30;99.90;;;;;;5312149;27;20327;-52
2024/04/26 11:25:34;;;;;;;5.45;1.63;;;23.40;99.90;;;;;;5312518;27;19997;-51
2024/04/26 11:28:00;;;;;;;4.80;1.70;;;23.30;99.90;;;;;;5312289;27;20006;-51
2024/04/26 11:30:26;;;;;;;3.28;1.55;;;23.40;99.90;;;;;;5312011;27;20038;-51
2024/04/26 11:32:52;;;;;;;8.75;2.20;;;23.40;99.90;;;;;;5312591;27;20001;-51
2024/04/26 11:35:18;;;;;;;3.28;1.67;;;23.40;99.90;;;;;;5312178;27;20129;-51
2024/04/26 11:37:43;;;;;;;2.25;1.88;;;23.40;99.90;;;;;;5312409;27;20038;-51
2024/04/26 11:40:10;;;;;;;5.25;2.03;;;23.40;99.90;;;;;;5312320;27;20032;-51
2024/04/26 11:42:35;;;;;;;4.45;1.52;;;23.40;99.90;;;;;;5282092;27;20002;-52
2024/04/26 11:45:02;;;;;;;4.45;1.70;;;23.40;99.90;;;;;;5310428;27;19997;-51
2024/04/26 11:47:28;;;;;;;4.35;1.90;;;23.50;99.90;;;;;;5312188;27;20009;-53
2024/04/26 11:49:54;;;;;;;4.60;2.58;;;23.50;99.90;;;;;;5312047;27;20005;-51
2024/04/26 11:52:19;;;;;;;2.13;1.52;;;23.50;99.90;;;;;;5312192;27;20010;-55
2024/04/26 11:54:45;;;;;;;9.20;2.13;;;23.50;99.90;;;;;;5282251;27;20001;-51
2024/04/26 11:57:11;;;;;;;3.85;1.52;;;23.50;99.90;;;;;;5312234;27;20045;-51
2024/04/26 11:59:37;;;;;;;2.95;1.67;;;23.50;99.90;;;;;;5312086;27;20002;-51
2024/04/26 12:02:03;;;;;;;5.65;2.08;;;23.50;99.90;;;;;;5311719;27;20012;-51
2024/04/26 12:04:29;;;;;;;3.42;1.90;;;23.50;99.90;;;;;;5311795;27;20014;-52
2024/04/26 12:06:55;;;;;;;3.90;1.90;;;23.50;99.90;;;;;;5278855;26;20008;-51
2024/04/26 12:09:20;;;;;;;3.78;1.70;;;23.50;99.90;;;;;;5251204;27;20328;-51
2024/04/26 12:11:46;;;;;;;3.20;1.70;;;23.50;99.90;;;;;;5291238;26;20080;-51
2024/04/26 12:14:12;;;;;;;5.70;2.00;;;23.50;99.90;;;;;;5297261;26;20020;-52
2024/04/26 12:16:43;;;;;;;3.60;1.90;;;23.60;99.90;;;;;;5309886;27;20454;-52
2024/04/26 12:19:09;;;;;;;2.65;1.52;;;23.60;99.90;;;;;;5311662;26;20002;-52
2024/04/26 12:21:35;;;;;;;4.72;1.83;;;23.60;99.90;;;;;;5311150;27;20075;-52
2024/04/26 12:24:02;;;;;;;7.82;2.10;;;23.60;99.90;;;;;;5308556;27;20016;-53
2024/04/26 12:26:28;;;;;;;6.03;2.15;;;23.60;99.90;;;;;;5308172;27;20093;-52
2024/04/26 12:28:54;;;;;;;2.60;1.70;;;23.60;99.90;;;;;;5307917;27;20008;-52
2024/04/26 12:31:21;;;;;;;2.45;1.67;;;23.60;99.90;;;;;;5277845;27;20034;-53
2024/04/26 12:33:48;;;;;;;3.83;2.45;;;23.60;99.90;;;;;;5308515;27;20435;-53
2024/04/26 12:36:14;;;;;;;4.75;2.35;;;23.60;99.90;;;;;;5308311;27;20306;-52
2024/04/26 12:38:40;;;;;;;4.45;1.83;;;23.60;99.90;;;;;;5308126;27;20430;-52
2024/04/26 12:41:06;;;;;;;4.93;1.90;;;23.60;99.90;;;;;;5311302;27;20034;-52
2024/04/26 12:43:33;;;;;;;2.60;2.08;;;23.70;99.90;;;;;;5309670;27;20435;-52
2024/04/26 12:45:58;;;;;;;3.30;2.03;;;23.70;99.90;;;;;;5311992;27;20002;-52